createdAt,value
2024-04-13T00:04:09.653Z,967.15
2024-04-13T00:09:11.404Z,967.1
2024-04-13T00:14:12.755Z,967.08
2024-04-13T00:19:14.923Z,967.01
2024-04-13T00:24:16.661Z,966.99
2024-04-13T00:29:18.398Z,966.9
2024-04-13T00:34:19.917Z,966.89
2024-04-13T00:39:21.537Z,966.88
2024-04-13T00:44:23.638Z,966.91
2024-04-13T00:49:25.396Z,966.91
2024-04-13T00:54:27.325Z,966.91
2024-04-13T00:59:28.633Z,966.92
2024-04-13T01:04:30.273Z,966.89
2024-04-13T01:09:32.420Z,966.89
2024-04-13T01:14:34.011Z,966.88
2024-04-13T01:19:35.184Z,966.96
2024-04-13T01:24:37.187Z,966.91
2024-04-13T01:29:38.549Z,966.91
2024-04-13T01:34:40.097Z,966.87
2024-04-13T01:39:41.765Z,966.85
2024-04-13T01:44:43.119Z,966.82
2024-04-13T01:49:44.608Z,966.87
2024-04-13T01:54:46.264Z,966.84
2024-04-13T01:59:48.344Z,966.84
2024-04-13T02:04:50.447Z,966.87
2024-04-13T02:09:52.337Z,966.93
2024-04-13T02:14:54.061Z,966.86
2024-04-13T02:19:55.292Z,966.84
2024-04-13T02:24:56.539Z,966.87
2024-04-13T02:29:58.333Z,966.84
2024-04-13T02:35:00.024Z,966.84
2024-04-13T02:40:01.986Z,966.83
2024-04-13T02:45:03.338Z,966.82
2024-04-13T02:50:04.813Z,966.83
2024-04-13T02:55:06.922Z,966.79
2024-04-13T03:00:08.317Z,966.86
2024-04-13T03:05:09.721Z,966.89
2024-04-13T03:10:11.242Z,966.88
2024-04-13T03:15:13.389Z,966.91
2024-04-13T03:20:14.607Z,966.95
2024-04-13T03:25:15.987Z,967.01
2024-04-13T03:30:17.718Z,967.03
2024-04-13T03:35:19.244Z,967.03
2024-04-13T03:40:21.147Z,966.97
2024-04-13T03:45:22.809Z,967.02
2024-04-13T03:50:24.079Z,966.98
2024-04-13T03:55:26.150Z,967.05
2024-04-13T04:00:27.729Z,967.08
2024-04-13T04:05:29.804Z,967.1
2024-04-13T04:10:31.948Z,967
2024-04-13T04:15:33.266Z,967.05
2024-04-13T04:20:35.007Z,967
2024-04-13T04:25:36.242Z,967.07
2024-04-13T04:30:37.561Z,967.05
2024-04-13T04:35:39.012Z,967.08
2024-04-13T04:40:40.514Z,967.09
2024-04-13T04:45:42.684Z,967.14
2024-04-13T04:50:44.739Z,967.2
2024-04-13T04:55:46.236Z,967.19
2024-04-13T05:00:47.656Z,967.22
2024-04-13T05:05:49.260Z,967.24
2024-04-13T05:10:50.800Z,967.34
2024-04-13T05:15:52.035Z,967.42
2024-04-13T05:20:54.140Z,967.35
2024-04-13T05:25:55.712Z,967.34
2024-04-13T05:30:57.509Z,967.36
2024-04-13T05:36:00.114Z,967.46
2024-04-13T05:41:00.953Z,967.52
2024-04-13T05:46:02.863Z,967.49
2024-04-13T05:51:04.518Z,967.47
2024-04-13T05:56:06.012Z,967.52
2024-04-13T06:01:07.534Z,967.44
2024-04-13T06:06:09.635Z,967.47
2024-04-13T06:11:11.087Z,967.47
2024-04-13T06:16:12.664Z,967.46
2024-04-13T06:21:13.896Z,967.41
2024-04-13T06:26:16.021Z,967.38
2024-04-13T06:31:17.954Z,967.32
2024-04-13T06:36:19.703Z,967.25
2024-04-13T06:41:21.044Z,967.18
2024-04-13T06:46:22.948Z,967.21
2024-04-13T06:51:24.194Z,967.14
2024-04-13T06:56:25.773Z,967.18
2024-04-13T07:01:27.683Z,967.15
2024-04-13T07:06:30.329Z,967.12
2024-04-13T07:11:31.055Z,967.17
2024-04-13T07:16:33.188Z,967.08
2024-04-13T07:21:34.631Z,967.11
2024-04-13T07:26:36.371Z,967.2
2024-04-13T07:31:37.847Z,967.25
2024-04-13T07:36:39.403Z,967.22
2024-04-13T07:41:41.319Z,967.18
2024-04-13T07:46:42.884Z,967.15
2024-04-13T07:51:44.554Z,967.17
2024-04-13T07:56:46.386Z,967.14
2024-04-13T08:01:48.522Z,967.14
2024-04-13T08:06:50.584Z,967.09
2024-04-13T08:11:52.273Z,967.06
2024-04-13T08:16:53.797Z,966.94
2024-04-13T08:21:55.162Z,967.01
2024-04-13T08:26:57.175Z,966.98
2024-04-13T08:31:58.726Z,967.02
2024-04-13T08:37:00.841Z,966.96
2024-04-13T08:42:02.910Z,966.97
2024-04-13T08:47:04.638Z,966.97
2024-04-13T08:52:06.730Z,966.96
2024-04-13T08:57:08.080Z,966.93
2024-04-13T09:02:11.003Z,966.91
2024-04-13T09:07:11.615Z,966.89
2024-04-13T09:12:13.138Z,966.92
2024-04-13T09:17:14.605Z,966.88
2024-04-13T09:22:16.418Z,966.82
2024-04-13T09:27:17.919Z,966.82
2024-04-13T09:32:19.250Z,966.8
2024-04-13T09:42:22.568Z,966.55
2024-04-13T09:47:24.440Z,966.52
2024-04-13T09:52:25.707Z,966.49
2024-04-13T09:57:27.614Z,966.44
2024-04-13T10:02:29.466Z,966.41
2024-04-13T10:07:31.141Z,966.34
2024-04-13T10:12:33.252Z,966.38
2024-04-13T10:17:34.942Z,966.33
2024-04-13T10:22:38.252Z,966.29
2024-04-13T10:27:38.847Z,966.17
2024-04-13T10:32:40.734Z,966.08
2024-04-13T10:37:42.182Z,966.07
2024-04-13T10:42:44.423Z,966.05
2024-04-13T10:47:45.550Z,966.05
2024-04-13T10:52:47.607Z,965.96
2024-04-13T10:57:48.795Z,965.87
2024-04-13T11:02:50.466Z,965.82
2024-04-13T11:07:52.082Z,965.75
2024-04-13T11:12:53.617Z,965.71
2024-04-13T11:17:55.300Z,965.64
2024-04-13T11:22:56.874Z,965.5
2024-04-13T11:27:58.985Z,965.46
2024-04-13T11:33:00.949Z,965.41
2024-04-13T11:38:02.762Z,965.31
2024-04-13T11:43:03.994Z,965.24
2024-04-13T11:48:05.832Z,965.19
2024-04-13T11:53:07.830Z,965.11
2024-04-13T11:58:09.765Z,965.03
2024-04-13T12:03:11.416Z,965
2024-04-13T12:08:12.882Z,964.96
2024-04-13T12:13:14.637Z,964.89
2024-04-13T12:18:16.277Z,964.87
2024-04-13T12:23:17.241Z,964.71
2024-04-13T12:28:18.815Z,964.64
2024-04-13T12:33:20.397Z,964.57
2024-04-13T12:38:22.007Z,964.47
2024-04-13T12:43:23.461Z,964.4
2024-04-13T12:48:25.488Z,964.32
2024-04-13T12:53:27.131Z,964.26
2024-04-13T12:58:28.986Z,964.21
2024-04-13T13:03:31.050Z,964.09
2024-04-13T13:08:32.312Z,964
2024-04-13T13:13:34.082Z,963.95
2024-04-13T13:18:36.198Z,963.95
2024-04-13T13:23:37.823Z,963.88
2024-04-13T13:28:39.019Z,963.74
2024-04-13T13:33:40.384Z,963.74
2024-04-13T13:38:41.933Z,963.67
2024-04-13T13:43:43.300Z,963.62
2024-04-13T13:48:51.593Z,963.55
2024-04-13T13:53:53.249Z,963.45
2024-04-13T13:58:54.640Z,963.38
2024-04-13T14:03:55.981Z,963.35
2024-04-13T14:08:57.191Z,963.26
2024-04-13T14:13:58.722Z,963.16
2024-04-13T14:19:00.559Z,963.1
2024-04-13T14:24:02.122Z,963.04
2024-04-13T14:29:03.740Z,962.96
2024-04-13T14:34:05.356Z,962.89
2024-04-13T14:39:07.298Z,962.9
2024-04-13T14:44:09.037Z,962.84
2024-04-13T14:49:10.976Z,962.84
2024-04-13T14:54:12.267Z,962.83
2024-04-13T14:59:13.868Z,962.76
2024-04-13T15:04:15.435Z,962.77
2024-04-13T15:09:17.162Z,962.82
2024-04-13T15:14:18.990Z,962.73
2024-04-13T15:19:20.928Z,962.67
2024-04-13T15:24:22.408Z,962.67
2024-04-13T15:29:24.550Z,962.65
2024-04-13T15:34:26.524Z,962.61
2024-04-13T15:39:28.077Z,962.58
2024-04-13T15:44:29.368Z,962.48
2024-04-13T15:49:31.342Z,962.43
2024-04-13T15:54:33.226Z,962.39
2024-04-13T15:59:35.182Z,962.38
2024-04-13T16:04:37.187Z,962.38
2024-04-13T16:09:38.959Z,962.39
2024-04-13T16:14:40.331Z,962.34
2024-04-13T16:19:41.860Z,962.29
2024-04-13T16:24:43.173Z,962.22
2024-04-13T16:29:44.820Z,962.21
2024-04-13T16:34:46.025Z,962.17
2024-04-13T16:39:47.551Z,962.19
2024-04-13T16:44:49.318Z,962.22
2024-04-13T16:49:50.666Z,962.18
2024-04-13T16:54:52.851Z,962.09
2024-04-13T16:59:54.047Z,962.06
2024-04-13T17:04:55.920Z,962.08
2024-04-13T17:09:57.635Z,961.98
2024-04-13T17:14:59.473Z,961.99
2024-04-13T17:20:00.717Z,962
2024-04-13T17:25:10.083Z,962
2024-04-13T17:30:03.819Z,961.9
2024-04-13T17:35:05.600Z,961.89
2024-04-13T17:40:07.105Z,961.93
2024-04-13T17:45:08.989Z,961.97
2024-04-13T17:50:10.304Z,961.93
2024-04-13T17:55:11.890Z,962.01
2024-04-13T18:00:13.426Z,961.94
2024-04-13T18:05:15.079Z,961.94
2024-04-13T18:10:16.598Z,961.97
2024-04-13T18:15:17.922Z,961.99
2024-04-13T18:20:19.853Z,962.02
2024-04-13T18:25:21.625Z,962.05
2024-04-13T18:30:23.423Z,962.06
2024-04-13T18:35:24.771Z,962.05
2024-04-13T18:40:26.008Z,962.08
2024-04-13T18:45:27.247Z,962.13
2024-04-13T18:50:29.036Z,962.14
2024-04-13T18:55:30.518Z,962.13
2024-04-13T19:00:32.631Z,962.14
2024-04-13T19:05:34.672Z,962.17
2024-04-13T19:10:35.916Z,962.15
2024-04-13T19:15:37.204Z,962.2
2024-04-13T19:20:38.506Z,962.16
2024-04-13T19:25:40.288Z,962.18
2024-04-13T19:30:42.534Z,962.21
2024-04-13T19:35:43.858Z,962.14
2024-04-13T19:40:45.406Z,962.1
2024-04-13T19:45:46.668Z,962.15
2024-04-13T19:50:48.446Z,962.21
2024-04-13T19:55:50.509Z,962.16
2024-04-13T20:00:52.333Z,962.16
2024-04-13T20:05:53.707Z,962.15
2024-04-13T20:10:55.558Z,962.12
2024-04-13T20:15:57.443Z,962.07
2024-04-13T20:20:58.652Z,962.06
2024-04-13T20:26:00.103Z,962.05
2024-04-13T20:31:02.249Z,962.01
2024-04-13T20:36:04.051Z,962.03
2024-04-13T20:41:05.953Z,962.08
2024-04-13T20:46:07.604Z,962.02
2024-04-13T20:51:17.660Z,962.05
2024-04-13T20:56:11.742Z,962.05
2024-04-13T21:01:13.747Z,962.08
2024-04-13T21:06:15.823Z,962.1
2024-04-13T21:11:17.939Z,962.07
2024-04-13T21:16:19.310Z,961.99
2024-04-13T21:21:20.787Z,961.94
2024-04-13T21:26:22.432Z,961.92
2024-04-13T21:31:24.520Z,961.9
2024-04-13T21:36:25.970Z,961.88
2024-04-13T21:41:28.032Z,961.8
2024-04-13T21:46:29.598Z,961.74
2024-04-13T21:51:31.578Z,961.69
2024-04-13T21:56:33.210Z,961.67
2024-04-13T22:01:34.770Z,961.64
2024-04-13T22:06:35.882Z,961.58
2024-04-13T22:11:37.177Z,961.58
2024-04-13T22:16:38.580Z,961.48
2024-04-13T22:21:39.893Z,961.45
2024-04-13T22:26:41.112Z,961.41
2024-04-13T22:31:42.351Z,961.45
2024-04-13T22:36:43.951Z,961.4
2024-04-13T22:41:46.004Z,961.43
2024-04-13T22:46:47.289Z,961.41
2024-04-13T22:51:49.310Z,961.32
2024-04-13T22:56:51.318Z,961.21
2024-04-13T23:01:52.523Z,961.22
2024-04-13T23:06:54.545Z,961.21
2024-04-13T23:11:56.345Z,961.21
2024-04-13T23:16:58.329Z,961.23
2024-04-13T23:22:00.590Z,961.21
2024-04-13T23:27:01.834Z,961.2
2024-04-13T23:32:03.699Z,961.12
2024-04-13T23:37:05.626Z,961.04
2024-04-13T23:42:06.968Z,960.98
2024-04-13T23:47:08.821Z,960.91
2024-04-13T23:52:10.088Z,960.89
2024-04-13T23:57:11.661Z,960.86
